Hammersmith, United Kingdom
Current Conditions -  °F | °C
As of 7:41 PM on Friday 24 Oct 2014 (Local Time) from EGWU Reporting Station
Moderate Rain Moderate Rain  
Wind Chill: 59°   Ceiling: 1800
Heat Index: 59°   Visibility: 4mi
Dew Point: 57°   Wind: 13mph
Humidity: 94%   Direction: 260°W
Pressure: 29.91"   Gusts: NA
Location:  51.49°N, 0.23°W
Report Text: EGWU 241841Z 26011KT 6000 RA SCT012 BKN018 15/14 Q1013 GRN BECMG 9999 -RA FEW012 BKN040 BLU
Loading
Personal Weather Stations






























Interactive Weather Map
Tropical Storm Tracking
New forecast layout! Learn more

10-Day Weather Forecast

Advertisements
Track Severe Weather on mobile